Time;durP1;ratioP1;P1;durP2;ratioP2;P2;SDS_P1;SDS_P2;PMS_P1;PMS_P2;Temp;Humidity;BMP_temperature;BMP_pressure;BME280_temperature;BME280_humidity;BME280_pressure;Samples;Min_cycle;Max_cycle;Signal;HPM_P1;HPM_P2
2022/02/05 00:01:36;;;;;;;0.40;0.40;;;19.40;99.90;;;;;;5065519;28;20049;-59
2022/02/05 00:04:08;;;;;;;0.30;0.30;;;19.40;99.90;;;;;;5069006;28;20163;-57
2022/02/05 00:06:40;;;;;;;0.40;0.40;;;19.40;99.90;;;;;;5056096;28;20503;-60
2022/02/05 00:14:42;;;;;;;0.98;0.95;;;19.30;99.90;;;;;;5070404;28;20041;-58
2022/02/05 00:33:16;;;;;;;0.30;0.30;;;19.30;99.90;;;;;;5067429;28;20550;-58
2022/02/05 00:42:24;;;;;;;0.40;0.40;;;19.20;99.90;;;;;;5059978;28;20052;-61
2022/02/05 00:44:35;;;;;;;;;;;19.20;99.90;;;;;;5065505;28;20049;-58
2022/02/05 00:47:03;;;;;;;0.35;0.35;;;19.20;99.90;;;;;;5046041;28;19939;-59
2022/02/05 00:49:30;;;;;;;0.38;0.38;;;19.20;99.90;;;;;;5067337;28;20045;-59
2022/02/05 00:52:06;;;;;;;0.30;0.30;;;19.10;99.90;;;;;;5067850;28;20052;-57
2022/02/05 00:54:33;;;;;;;0.30;0.30;;;19.10;99.90;;;;;;5068588;28;20036;-58
2022/02/05 00:59:28;;;;;;;0.30;0.30;;;19.10;99.90;;;;;;5069797;28;20487;-60
2022/02/05 01:01:56;;;;;;;0.30;0.30;;;19.10;99.90;;;;;;5071511;28;20044;-61
2022/02/05 01:04:23;;;;;;;;;;;19.10;99.90;;;;;;5063128;28;20060;-60
2022/02/05 01:06:50;;;;;;;0.30;0.30;;;19.10;99.90;;;;;;5071995;28;19920;-61
2022/02/05 01:09:22;;;;;;;0.30;0.30;;;19.10;99.90;;;;;;5069832;28;20051;-62
2022/02/05 01:11:50;;;;;;;0.30;0.30;;;19.10;99.90;;;;;;5065394;28;20067;-59
2022/02/05 01:14:23;;;;;;;0.30;0.30;;;19.20;99.90;;;;;;5049256;28;20055;-59
2022/02/05 01:16:59;;;;;;;0.40;0.40;;;19.10;99.90;;;;;;5070082;28;20114;-60
2022/02/05 01:22:11;;;;;;;0.80;0.70;;;19.00;99.90;;;;;;5064712;28;20041;-63
2022/02/05 01:24:40;;;;;;;0.45;0.45;;;19.00;99.90;;;;;;5080412;28;20045;-59
2022/02/05 01:27:13;;;;;;;0.93;0.85;;;19.00;99.90;;;;;;5078324;28;20059;-59
2022/02/05 01:32:29;;;;;;;1.65;1.10;;;19.00;99.90;;;;;;5070697;28;20055;-58
2022/02/05 01:35:07;;;;;;;0.63;0.63;;;19.00;99.90;;;;;;5055036;28;20052;-60
2022/02/05 01:56:34;;;;;;;0.40;0.40;;;18.90;99.90;;;;;;5069010;28;20328;-61
2022/02/05 02:10:19;;;;;;;0.40;0.40;;;18.90;99.90;;;;;;5055785;28;20067;-59
2022/02/05 02:13:02;;;;;;;0.30;0.30;;;18.90;99.90;;;;;;5062052;28;20049;-56
2022/02/05 02:15:37;;;;;;;0.47;0.47;;;18.90;99.90;;;;;;5067238;28;20052;-61
2022/02/05 02:18:17;;;;;;;1.17;0.60;;;18.80;99.90;;;;;;5048708;28;20067;-60
2022/02/05 02:26:37;;;;;;;0.30;0.30;;;18.80;99.90;;;;;;5087053;28;20038;-61
2022/02/05 02:29:09;;;;;;;0.30;0.30;;;18.80;99.90;;;;;;5046292;28;20051;-65
2022/02/05 02:31:42;;;;;;;1.90;1.20;;;18.80;99.90;;;;;;5068123;28;20041;-60
2022/02/05 02:34:15;;;;;;;0.35;0.35;;;18.80;99.90;;;;;;5059799;28;20041;-59
2022/02/05 02:39:20;;;;;;;0.57;0.57;;;18.80;99.90;;;;;;5062416;28;20045;-60
2022/02/05 02:42:00;;;;;;;0.30;0.30;;;18.80;99.90;;;;;;5074127;28;20052;-59
2022/02/05 02:44:27;;;;;;;0.50;0.50;;;18.70;99.90;;;;;;5063391;28;20051;-60
2022/02/05 02:46:55;;;;;;;0.40;0.40;;;18.70;99.90;;;;;;5068099;28;20451;-60
2022/02/05 02:49:42;;;;;;;0.40;0.40;;;18.70;99.90;;;;;;5064760;28;20440;-61
2022/02/05 02:58:03;;;;;;;0.70;0.70;;;18.70;99.90;;;;;;5064019;28;20056;-62
2022/02/05 03:00:30;;;;;;;1.27;0.77;;;18.70;99.90;;;;;;5061395;28;20040;-60
2022/02/05 03:02:58;;;;;;;0.45;0.45;;;18.70;99.90;;;;;;5053568;28;20037;-58
2022/02/05 03:05:25;;;;;;;0.30;0.30;;;18.70;99.90;;;;;;5051728;28;20060;-60
2022/02/05 03:07:52;;;;;;;0.30;0.30;;;18.70;99.90;;;;;;5073137;28;20048;-60
2022/02/05 03:10:20;;;;;;;0.40;0.40;;;18.70;99.90;;;;;;5066105;28;20385;-58
2022/02/05 03:12:47;;;;;;;0.40;0.40;;;18.60;99.90;;;;;;5072757;28;20071;-63
2022/02/05 03:15:19;;;;;;;0.30;0.30;;;18.60;99.90;;;;;;5083860;28;20040;-62
2022/02/05 03:18:04;;;;;;;0.40;0.40;;;18.70;99.90;;;;;;5063320;28;20049;-59
2022/02/05 03:20:33;;;;;;;0.60;0.60;;;18.60;99.90;;;;;;5059266;28;20053;-60
2022/02/05 03:23:01;;;;;;;0.30;0.30;;;18.60;99.90;;;;;;5063629;28;20403;-60
2022/02/05 03:25:29;;;;;;;0.40;0.40;;;18.60;99.90;;;;;;5061447;28;20059;-60
2022/02/05 03:27:57;;;;;;;1.17;0.55;;;18.60;99.90;;;;;;5071890;28;20048;-61
2022/02/05 03:30:26;;;;;;;0.38;0.38;;;18.60;99.90;;;;;;5070724;28;20044;-60
2022/02/05 03:32:55;;;;;;;0.30;0.30;;;18.60;99.90;;;;;;5074789;28;20656;-60
2022/02/05 03:35:23;;;;;;;0.30;0.30;;;18.60;99.90;;;;;;5069966;28;20096;-60
2022/02/05 03:37:50;;;;;;;0.30;0.30;;;18.60;99.90;;;;;;5074988;28;20047;-59
2022/02/05 03:40:18;;;;;;;0.30;0.30;;;18.50;99.90;;;;;;5067573;28;20495;-60
2022/02/05 03:42:45;;;;;;;0.30;0.30;;;18.50;99.90;;;;;;5073793;28;20401;-60
2022/02/05 03:45:14;;;;;;;0.30;0.30;;;18.50;99.90;;;;;;5066434;28;20479;-60
2022/02/05 03:47:42;;;;;;;0.30;0.30;;;18.50;99.90;;;;;;5070352;28;20516;-61
2022/02/05 03:50:09;;;;;;;0.30;0.30;;;18.50;99.90;;;;;;5068989;28;20037;-60
2022/02/05 03:52:38;;;;;;;0.30;0.30;;;18.50;99.90;;;;;;5068231;28;20052;-58
2022/02/05 03:55:07;;;;;;;0.40;0.40;;;18.40;99.90;;;;;;5067298;28;20437;-57
2022/02/05 03:57:34;;;;;;;0.30;0.30;;;18.50;99.90;;;;;;5069901;28;20048;-60
2022/02/05 04:00:07;;;;;;;0.73;0.73;;;18.50;99.90;;;;;;5056127;28;20044;-60
2022/02/05 04:02:36;;;;;;;0.38;0.38;;;18.50;99.90;;;;;;5064943;28;20041;-57
2022/02/05 04:05:05;;;;;;;0.30;0.30;;;18.50;99.90;;;;;;5070356;28;20036;-59
2022/02/05 04:07:36;;;;;;;0.30;0.30;;;18.50;99.90;;;;;;5067200;28;20048;-60
2022/02/05 04:10:07;;;;;;;1.30;1.10;;;18.50;99.90;;;;;;5060431;28;20415;-60
2022/02/05 04:18:07;;;;;;;0.30;0.30;;;18.40;99.90;;;;;;5073911;28;20515;-60
2022/02/05 04:20:34;;;;;;;0.40;0.40;;;18.40;99.90;;;;;;5070795;28;20053;-60
2022/02/05 04:23:01;;;;;;;0.70;0.70;;;18.40;99.90;;;;;;5060864;28;20037;-60
2022/02/05 04:25:29;;;;;;;0.30;0.30;;;18.40;99.90;;;;;;5067154;28;20070;-61
2022/02/05 04:27:56;;;;;;;0.40;0.40;;;18.40;99.90;;;;;;5056424;28;20066;-58
2022/02/05 04:30:23;;;;;;;0.40;0.40;;;18.40;99.90;;;;;;5068201;28;20044;-61
2022/02/05 04:32:51;;;;;;;0.30;0.30;;;18.40;99.90;;;;;;5073684;28;20044;-61
2022/02/05 04:35:22;;;;;;;0.40;0.40;;;18.30;99.90;;;;;;5062427;28;20689;-60
2022/02/05 04:37:53;;;;;;;0.30;0.30;;;18.30;99.90;;;;;;5054357;28;20063;-59
2022/02/05 04:40:29;;;;;;;1.25;0.88;;;18.30;99.90;;;;;;5061546;28;20048;-62
2022/02/05 04:56:28;;;;;;;0.40;0.40;;;18.40;99.90;;;;;;5072147;28;20075;-60
2022/02/05 05:04:30;;;;;;;0.40;0.40;;;18.80;99.90;;;;;;5075045;28;20052;-61
2022/02/05 05:12:33;;;;;;;0.30;0.30;;;19.10;99.90;;;;;;5079367;28;20044;-61
2022/02/05 05:20:26;;;;;;;0.30;0.30;;;19.40;99.90;;;;;;5068333;28;20452;-61
2022/02/05 05:22:54;;;;;;;0.40;0.40;;;19.50;99.90;;;;;;5068889;28;20518;-62
2022/02/05 05:25:21;;;;;;;0.30;0.30;;;19.70;99.90;;;;;;5067925;28;20040;-60
2022/02/05 05:27:48;;;;;;;0.30;0.30;;;19.80;99.90;;;;;;5072114;28;20048;-61
2022/02/05 05:30:17;;;;;;;5.28;2.10;;;19.90;99.90;;;;;;5064589;28;20067;-59
2022/02/05 05:32:45;;;;;;;0.30;0.30;;;20.00;99.90;;;;;;5075664;28;20040;-59
2022/02/05 05:35:12;;;;;;;0.40;0.40;;;20.20;99.90;;;;;;5068070;28;20052;-59
2022/02/05 05:37:39;;;;;;;0.30;0.30;;;20.30;99.90;;;;;;5055295;28;20048;-61
2022/02/05 05:40:08;;;;;;;0.30;0.30;;;20.40;99.90;;;;;;5067489;28;20053;-61
2022/02/05 05:42:40;;;;;;;0.30;0.30;;;20.50;99.90;;;;;;5070519;28;20280;-59
2022/02/05 05:47:51;;;;;;;0.30;0.30;;;20.80;99.90;;;;;;5065678;28;20044;-59
2022/02/05 05:53:14;;;;;;;1.45;0.60;;;21.10;99.90;;;;;;5055741;28;20063;-57
2022/02/05 05:55:43;;;;;;;0.30;0.30;;;21.30;99.90;;;;;;5062268;28;20045;-59
2022/02/05 05:58:11;;;;;;;0.30;0.30;;;21.30;99.90;;;;;;5062624;28;20425;-59
2022/02/05 06:00:39;;;;;;;0.30;0.30;;;21.40;99.90;;;;;;5063853;28;20044;-58
2022/02/05 06:03:07;;;;;;;0.35;0.35;;;21.40;99.90;;;;;;5063315;28;20056;-58
2022/02/05 06:05:34;;;;;;;0.30;0.30;;;21.30;99.90;;;;;;5071656;28;20063;-58
2022/02/05 06:08:04;;;;;;;0.35;0.35;;;21.30;99.90;;;;;;5049826;28;20051;-62
2022/02/05 06:10:32;;;;;;;0.30;0.30;;;21.20;99.90;;;;;;5053439;28;20047;-61
2022/02/05 06:12:59;;;;;;;0.47;0.35;;;21.20;99.90;;;;;;5065221;28;20067;-60
2022/02/05 06:15:27;;;;;;;0.30;0.30;;;21.20;99.90;;;;;;5069868;28;20053;-61
2022/02/05 06:17:55;;;;;;;0.30;0.30;;;21.10;99.90;;;;;;5062094;28;20083;-59
2022/02/05 06:20:22;;;;;;;0.30;0.30;;;21.10;99.90;;;;;;5069830;28;20052;-61
2022/02/05 06:22:49;;;;;;;0.30;0.30;;;21.10;99.90;;;;;;5049116;28;20044;-61
2022/02/05 06:25:17;;;;;;;0.40;0.40;;;21.10;99.90;;;;;;5071219;28;20052;-61
2022/02/05 06:27:44;;;;;;;1.98;1.30;;;21.10;99.90;;;;;;5065215;28;20044;-61
2022/02/05 06:30:12;;;;;;;0.30;0.30;;;21.10;99.90;;;;;;5069671;28;20052;-60
2022/02/05 06:32:41;;;;;;;0.30;0.30;;;21.00;99.90;;;;;;5064871;28;20377;-62
2022/02/05 06:35:12;;;;;;;0.40;0.40;;;21.00;99.90;;;;;;5051246;28;20456;-58
2022/02/05 06:37:39;;;;;;;0.30;0.30;;;21.00;99.90;;;;;;5075671;28;20056;-60
2022/02/05 06:40:07;;;;;;;0.30;0.30;;;21.00;99.90;;;;;;5078066;28;20071;-59
2022/02/05 06:42:35;;;;;;;0.30;0.30;;;20.90;99.90;;;;;;5067212;28;20049;-61
2022/02/05 06:45:03;;;;;;;0.52;0.52;;;20.90;99.90;;;;;;5073015;28;20052;-61
2022/02/05 06:47:33;;;;;;;0.35;0.35;;;20.90;99.90;;;;;;5070625;28;20045;-61
2022/02/05 06:50:01;;;;;;;0.30;0.30;;;20.80;99.90;;;;;;5071304;28;20048;-63
2022/02/05 06:52:29;;;;;;;0.30;0.30;;;20.80;99.90;;;;;;5064767;28;20051;-62
2022/02/05 06:54:58;;;;;;;0.63;0.63;;;20.70;99.90;;;;;;5036826;28;20069;-61
2022/02/05 06:57:27;;;;;;;0.50;0.50;;;19.60;98.70;;;;;;5038159;28;20049;-57
2022/02/05 06:59:54;;;;;;;0.50;0.50;;;18.90;99.90;;;;;;5070986;28;20044;-56
2022/02/05 07:02:22;;;;;;;1.98;1.23;;;19.10;99.90;;;;;;5031619;28;20053;-58
2022/02/05 07:04:49;;;;;;;0.55;0.55;;;19.50;99.90;;;;;;5063017;28;20045;-60
2022/02/05 07:07:17;;;;;;;0.35;0.35;;;19.80;99.90;;;;;;5072852;28;20358;-59
2022/02/05 07:09:44;;;;;;;9.80;1.20;;;20.00;99.90;;;;;;5056792;28;20389;-55
2022/02/05 07:12:12;;;;;;;0.32;0.32;;;20.30;99.90;;;;;;5065605;28;20049;-60
2022/02/05 07:17:55;;;;;;;0.68;0.52;;;20.60;99.90;;;;;;5067552;28;20048;-62
2022/02/05 07:31:12;;;;;;;1.55;1.13;;;21.20;99.90;;;;;;5044433;28;20045;-61
2022/02/05 07:33:39;;;;;;;0.50;0.50;;;21.20;99.90;;;;;;5064564;28;20528;-65
2022/02/05 07:36:07;;;;;;;0.60;0.60;;;21.30;99.90;;;;;;5064440;28;20040;-61
2022/02/05 07:38:34;;;;;;;0.45;0.45;;;21.30;99.90;;;;;;5063147;28;20052;-62
2022/02/05 07:41:02;;;;;;;0.30;0.30;;;21.30;99.90;;;;;;5066255;28;20044;-66
2022/02/05 07:43:35;;;;;;;2.10;1.10;;;21.30;99.90;;;;;;5050402;28;20059;-65
2022/02/05 07:46:11;;;;;;;0.70;0.70;;;21.20;99.90;;;;;;5065281;28;20052;-59
2022/02/05 07:48:39;;;;;;;1.60;1.35;;;21.20;99.90;;;;;;5067216;28;20392;-64
2022/02/05 07:51:08;;;;;;;0.32;0.32;;;21.20;99.90;;;;;;5067611;28;20251;-63
2022/02/05 07:53:36;;;;;;;;;;;21.20;99.90;;;;;;5073878;28;20044;-61
2022/02/05 07:56:04;;;;;;;0.30;0.30;;;21.20;99.90;;;;;;5069157;28;19928;-60
2022/02/05 07:58:34;;;;;;;0.95;0.82;;;21.20;99.90;;;;;;5072625;28;20728;-63
2022/02/05 08:01:02;;;;;;;0.65;0.65;;;21.10;99.90;;;;;;5060701;28;20060;-65
2022/02/05 08:03:30;;;;;;;0.30;0.30;;;21.10;99.90;;;;;;5069435;28;20036;-64
2022/02/05 08:05:59;;;;;;;0.50;0.50;;;21.00;99.90;;;;;;5074080;28;20112;-63
2022/02/05 08:08:30;;;;;;;2.92;1.55;;;21.00;99.90;;;;;;5048460;28;20610;-73
2022/02/05 08:11:02;;;;;;;0.73;0.73;;;20.80;99.90;;;;;;5043280;28;20511;-67
2022/02/05 08:13:32;;;;;;;0.38;0.38;;;20.80;99.90;;;;;;5047183;28;20051;-67
2022/02/05 08:16:12;;;;;;;2.47;1.38;;;20.70;99.90;;;;;;5056902;28;20407;-63
2022/02/05 08:18:40;;;;;;;4.28;1.65;;;20.70;99.90;;;;;;5050504;28;20048;-63
2022/02/05 08:21:07;;;;;;;;;;;20.70;99.90;;;;;;5051502;28;20060;-61
2022/02/05 08:23:34;;;;;;;0.80;0.80;;;20.60;99.90;;;;;;5044824;28;19929;-63
2022/02/05 08:26:04;;;;;;;0.40;0.40;;;20.50;99.90;;;;;;5052889;28;20128;-62
2022/02/05 08:28:33;;;;;;;0.77;0.77;;;20.50;99.90;;;;;;5049104;28;20103;-61
2022/02/05 08:31:00;;;;;;;0.40;0.40;;;20.50;99.90;;;;;;5048065;28;20049;-63
2022/02/05 08:33:28;;;;;;;0.30;0.30;;;20.50;99.90;;;;;;5048578;28;20511;-62
2022/02/05 08:35:57;;;;;;;0.63;0.55;;;20.60;99.90;;;;;;5047591;28;20059;-63
2022/02/05 08:38:28;;;;;;;1.42;0.90;;;20.70;99.90;;;;;;5047223;28;20044;-65
2022/02/05 08:40:56;;;;;;;0.40;0.40;;;20.80;99.90;;;;;;5042135;28;20469;-63
2022/02/05 08:43:23;;;;;;;0.30;0.30;;;21.00;99.90;;;;;;5051047;28;20044;-64
2022/02/05 08:45:50;;;;;;;0.80;0.65;;;21.20;99.90;;;;;;5046001;28;20377;-64
2022/02/05 08:48:18;;;;;;;0.47;0.47;;;21.40;99.90;;;;;;5049905;28;20040;-64
2022/02/05 08:50:46;;;;;;;1.58;1.08;;;21.40;99.90;;;;;;5050163;28;20041;-63
2022/02/05 08:53:20;;;;;;;0.40;0.40;;;21.40;99.90;;;;;;5049824;28;20037;-58
2022/02/05 08:55:52;;;;;;;0.60;0.60;;;21.40;99.90;;;;;;5048066;28;20160;-66
2022/02/05 08:58:20;;;;;;;0.30;0.30;;;21.40;99.90;;;;;;5047207;28;20067;-62
2022/02/05 09:00:51;;;;;;;0.40;0.40;;;21.40;99.90;;;;;;5041421;28;20049;-64
2022/02/05 09:03:27;;;;;;;0.40;0.40;;;21.40;99.90;;;;;;5042187;28;20061;-64
2022/02/05 09:05:55;;;;;;;3.53;2.38;;;21.40;99.90;;;;;;5049800;28;20049;-62
2022/02/05 09:08:27;;;;;;;0.40;0.40;;;21.50;99.90;;;;;;5042564;28;20052;-63
2022/02/05 09:11:06;;;;;;;0.40;0.40;;;21.50;99.90;;;;;;5053206;28;20056;-64
2022/02/05 09:16:14;;;;;;;1.65;1.10;;;21.40;99.90;;;;;;5066962;28;20044;-63
2022/02/05 09:18:43;;;;;;;0.57;0.57;;;21.40;99.90;;;;;;5069434;28;20051;-61
2022/02/05 09:21:11;;;;;;;0.30;0.30;;;21.40;99.90;;;;;;5071623;28;20048;-61
2022/02/05 09:23:41;;;;;;;0.75;0.75;;;21.40;99.90;;;;;;5067528;28;20059;-61
2022/02/05 09:26:11;;;;;;;0.70;0.50;;;21.40;99.90;;;;;;5066814;28;20535;-59
2022/02/05 09:28:43;;;;;;;2.75;0.65;;;21.30;99.90;;;;;;5053321;28;20503;-61
2022/02/05 09:33:39;;;;;;;0.50;0.50;;;21.30;99.90;;;;;;5066861;28;20586;-62
2022/02/05 09:36:07;;;;;;;3.17;1.42;;;21.20;99.90;;;;;;5068146;28;20900;-62
2022/02/05 09:38:34;;;;;;;;;;;21.20;99.90;;;;;;5064671;28;20523;-61
2022/02/05 09:41:02;;;;;;;0.30;0.30;;;21.20;99.90;;;;;;5043949;28;20471;-63
2022/02/05 09:43:30;;;;;;;0.30;0.30;;;21.20;99.90;;;;;;5068557;28;20044;-59
2022/02/05 09:45:59;;;;;;;1.85;0.95;;;21.20;99.90;;;;;;5065836;28;20043;-61
2022/02/05 09:48:28;;;;;;;0.47;0.47;;;21.20;99.90;;;;;;5066128;28;20053;-61
2022/02/05 09:51:03;;;;;;;0.30;0.30;;;21.10;99.90;;;;;;5080097;28;20048;-62
2022/02/05 09:53:31;;;;;;;0.85;0.77;;;21.10;99.90;;;;;;5057167;28;20432;-62
2022/02/05 09:55:59;;;;;;;1.45;0.57;;;21.00;99.90;;;;;;5074494;28;20059;-60
2022/02/05 09:58:27;;;;;;;0.40;0.40;;;21.00;99.90;;;;;;5074397;28;20049;-61
2022/02/05 10:01:00;;;;;;;0.77;0.77;;;20.90;99.90;;;;;;5056185;28;20044;-61
2022/02/05 10:03:32;;;;;;;1.30;0.95;;;20.90;99.90;;;;;;5070472;28;20151;-58
2022/02/05 10:06:18;;;;;;;0.60;0.60;;;20.50;99.90;;;;;;5045722;28;20139;-59
2022/02/05 10:08:59;;;;;;;1.08;0.82;;;19.60;99.70;;;;;;5063791;28;20064;-60
2022/02/05 10:11:31;;;;;;;0.50;0.50;;;19.60;99.90;;;;;;5063341;28;21092;-58
2022/02/05 10:14:12;;;;;;;0.63;0.63;;;19.90;99.90;;;;;;5059218;28;20060;-58
2022/02/05 10:16:40;;;;;;;1.98;0.88;;;20.30;99.90;;;;;;5067500;28;20059;-60
2022/02/05 10:19:07;;;;;;;0.40;0.40;;;20.50;99.90;;;;;;5083672;28;20051;-61
2022/02/05 10:21:35;;;;;;;9.90;1.65;;;20.80;99.90;;;;;;5062341;28;20376;-59
2022/02/05 10:24:08;;;;;;;1.45;0.65;;;20.90;99.90;;;;;;5083157;28;20096;-61
2022/02/05 10:26:38;;;;;;;0.57;0.57;;;21.10;99.90;;;;;;5065851;28;20500;-58
2022/02/05 10:29:11;;;;;;;0.30;0.30;;;21.20;99.90;;;;;;5058862;28;20135;-58
2022/02/05 10:32:13;;;;;;;1.77;1.10;;;21.30;99.90;;;;;;5061689;28;20071;-58
2022/02/05 10:34:56;;;;;;;0.40;0.40;;;21.30;99.90;;;;;;5047192;28;20059;-60
2022/02/05 10:37:34;;;;;;;0.73;0.73;;;21.40;99.90;;;;;;5066411;28;20040;-60
2022/02/05 10:40:09;;;;;;;1.15;0.95;;;21.40;99.90;;;;;;5044866;28;20052;-59
2022/02/05 10:43:18;;;;;;;0.40;0.40;;;21.50;99.90;;;;;;5073981;28;20044;-62
2022/02/05 10:45:52;;;;;;;0.43;0.43;;;21.50;99.90;;;;;;5063051;28;20610;-57
2022/02/05 10:48:21;;;;;;;0.40;0.40;;;21.50;99.90;;;;;;5066360;28;20524;-60
2022/02/05 10:50:51;;;;;;;1.08;0.95;;;21.50;99.90;;;;;;5065017;28;20045;-57
2022/02/05 10:53:33;;;;;;;0.82;0.82;;;21.40;99.90;;;;;;5077125;28;20052;-58
2022/02/05 11:07:22;;;;;;;0.40;0.40;;;21.30;99.90;;;;;;5054282;28;20059;-59
2022/02/05 11:09:52;;;;;;;5.18;2.40;;;21.30;99.90;;;;;;5037767;28;20087;-61
2022/02/05 11:20:41;;;;;;;1.75;0.63;;;21.10;99.90;;;;;;5054784;28;20098;-58
2022/02/05 11:23:11;;;;;;;0.43;0.43;;;21.10;99.90;;;;;;5069904;28;20058;-60
2022/02/05 11:25:40;;;;;;;0.70;0.70;;;21.10;99.90;;;;;;5055224;28;20436;-60
2022/02/05 11:28:12;;;;;;;0.40;0.40;;;21.10;99.90;;;;;;5063806;28;20045;-57
2022/02/05 11:30:43;;;;;;;0.47;0.47;;;21.00;99.90;;;;;;5064757;28;20070;-57
2022/02/05 11:33:23;;;;;;;0.75;0.70;;;21.00;99.90;;;;;;5062937;28;20048;-62
2022/02/05 11:36:39;;;;;;;0.40;0.40;;;21.00;99.90;;;;;;5079519;28;20484;-61
2022/02/05 11:39:06;;;;;;;2.30;1.00;;;21.00;99.90;;;;;;5074823;28;20044;-60
2022/02/05 11:41:35;;;;;;;0.30;0.30;;;20.90;99.90;;;;;;5076045;28;20055;-60
2022/02/05 11:44:16;;;;;;;0.60;0.60;;;20.90;99.90;;;;;;5067376;28;20045;-60
2022/02/05 11:47:05;;;;;;;0.35;0.35;;;20.90;99.90;;;;;;5047618;28;20040;-58
2022/02/05 11:49:55;;;;;;;0.40;0.40;;;20.80;99.90;;;;;;5072572;28;20036;-60
2022/02/05 11:52:43;;;;;;;0.30;0.30;;;20.80;99.90;;;;;;5070057;28;20048;-58
2022/02/05 11:55:11;;;;;;;;;;;20.80;99.90;;;;;;5058694;28;20052;-61
2022/02/05 11:57:45;;;;;;;0.47;0.47;;;20.90;99.90;;;;;;5070081;28;19932;-61
2022/02/05 12:00:22;;;;;;;0.30;0.30;;;21.00;99.90;;;;;;5070634;28;20515;-58
2022/02/05 12:02:58;;;;;;;20.83;1.05;;;21.00;99.90;;;;;;5075612;28;20040;-62
2022/02/05 12:05:39;;;;;;;0.40;0.40;;;21.10;99.90;;;;;;5062424;28;20071;-60
2022/02/05 12:08:12;;;;;;;0.45;0.45;;;21.10;99.90;;;;;;5065481;28;20145;-60
2022/02/05 12:10:49;;;;;;;0.40;0.40;;;21.10;99.90;;;;;;5055792;28;20438;-60
2022/02/05 12:13:33;;;;;;;0.52;0.40;;;21.10;99.90;;;;;;5080486;28;20403;-61
2022/02/05 12:16:09;;;;;;;0.43;0.43;;;21.20;99.90;;;;;;5076475;28;20398;-61
2022/02/05 12:18:57;;;;;;;0.60;0.60;;;21.30;99.90;;;;;;5071238;28;20055;-61
2022/02/05 12:21:29;;;;;;;0.40;0.40;;;21.30;99.90;;;;;;5076718;28;20052;-58
2022/02/05 12:26:30;;;;;;;1.23;0.82;;;21.30;99.90;;;;;;5078265;28;20363;-60
2022/02/05 12:29:01;;;;;;;0.30;0.30;;;21.30;99.90;;;;;;5072925;28;20044;-60
2022/02/05 12:31:30;;;;;;;0.35;0.35;;;21.20;99.90;;;;;;5057095;28;20044;-60
2022/02/05 12:34:03;;;;;;;0.40;0.40;;;21.20;99.90;;;;;;5078295;28;20040;-59
2022/02/05 12:36:41;;;;;;;0.40;0.40;;;21.20;99.90;;;;;;5073077;28;20045;-62
2022/02/05 12:39:23;;;;;;;0.52;0.52;;;21.10;99.90;;;;;;5048144;28;20052;-62
2022/02/05 12:41:58;;;;;;;2.63;2.05;;;21.10;99.90;;;;;;5083657;28;20052;-61
2022/02/05 12:44:29;;;;;;;0.30;0.30;;;21.10;99.90;;;;;;5074699;28;20059;-61
2022/02/05 12:47:04;;;;;;;1.02;0.95;;;21.10;99.90;;;;;;5074891;28;20049;-63
2022/02/05 12:49:42;;;;;;;0.88;0.88;;;21.00;99.90;;;;;;5078996;28;20471;-65
2022/02/05 12:52:12;;;;;;;0.32;0.32;;;21.00;99.90;;;;;;5060358;28;20044;-60
2022/02/05 12:54:55;;;;;;;0.65;0.65;;;21.00;99.90;;;;;;5071124;28;20373;-63
2022/02/05 12:57:23;;;;;;;0.50;0.50;;;21.00;99.90;;;;;;5075306;28;20424;-61
2022/02/05 12:59:50;;;;;;;1.08;0.82;;;20.90;99.90;;;;;;5068331;28;20059;-63
2022/02/05 13:02:18;;;;;;;;;;;20.80;99.90;;;;;;5068765;28;20071;-62
2022/02/05 13:04:47;;;;;;;;;;;20.80;99.90;;;;;;5061526;28;19924;-61
2022/02/05 13:07:21;;;;;;;2.67;2.47;;;20.80;99.90;;;;;;5065454;28;19955;-61
2022/02/05 13:09:51;;;;;;;0.38;0.38;;;20.80;99.90;;;;;;5073970;28;20044;-59
2022/02/05 13:12:23;;;;;;;0.30;0.30;;;20.80;99.90;;;;;;5064979;28;20071;-61
2022/02/05 13:15:24;;;;;;;0.40;0.40;;;20.80;99.90;;;;;;5063186;28;20059;-58
2022/02/05 13:34:19;;;;;;;0.40;0.40;;;21.40;99.90;;;;;;5069085;28;20526;-61
2022/02/05 13:37:07;;;;;;;0.40;0.40;;;21.50;99.90;;;;;;5067895;28;20048;-63
2022/02/05 13:42:12;;;;;;;0.40;0.40;;;21.60;99.90;;;;;;5066330;28;20048;-62
2022/02/05 13:45:01;;;;;;;0.77;0.60;;;21.50;99.90;;;;;;5069480;28;20052;-58
2022/02/05 13:47:32;;;;;;;1.98;1.75;;;21.50;99.90;;;;;;5069541;28;20036;-60
2022/02/05 13:50:08;;;;;;;1.45;1.20;;;21.50;99.90;;;;;;5066089;28;20048;-59
2022/02/05 13:52:41;;;;;;;0.70;0.70;;;21.60;99.90;;;;;;5063603;28;20044;-59
2022/02/05 13:55:12;;;;;;;0.50;0.50;;;21.50;99.90;;;;;;5069462;28;20053;-59
2022/02/05 13:57:58;;;;;;;0.32;0.32;;;21.50;99.90;;;;;;5063810;28;20055;-61
2022/02/05 14:00:44;;;;;;;0.40;0.40;;;21.50;99.90;;;;;;5060899;28;20044;-60
2022/02/05 14:03:28;;;;;;;0.40;0.40;;;21.50;99.90;;;;;;5062625;28;20041;-62
2022/02/05 14:06:05;;;;;;;0.40;0.40;;;21.40;99.90;;;;;;5042382;28;20052;-62
2022/02/05 14:08:41;;;;;;;0.73;0.73;;;21.30;99.90;;;;;;5061907;28;20049;-58
2022/02/05 14:11:10;;;;;;;0.32;0.32;;;21.30;99.90;;;;;;5067697;28;20060;-59
2022/02/05 14:13:39;;;;;;;0.40;0.40;;;21.30;99.90;;;;;;5069584;28;20045;-61
2022/02/05 14:16:08;;;;;;;0.30;0.30;;;21.30;99.90;;;;;;5075852;28;20298;-61
2022/02/05 14:18:55;;;;;;;2.80;0.80;;;21.20;99.90;;;;;;5045084;28;20407;-61
2022/02/05 14:21:45;;;;;;;0.43;0.43;;;21.20;99.90;;;;;;5065639;28;20048;-62
2022/02/05 14:24:30;;;;;;;0.43;0.43;;;21.20;99.90;;;;;;5067046;28;20067;-62
2022/02/05 14:27:11;;;;;;;0.73;0.73;;;21.20;99.90;;;;;;5065967;28;20048;-62
2022/02/05 14:32:28;;;;;;;3.10;1.67;;;21.20;99.90;;;;;;5064229;28;20041;-60
2022/02/05 14:35:04;;;;;;;1.10;1.00;;;21.20;99.90;;;;;;5066308;28;20051;-67
2022/02/05 14:43:03;;;;;;;0.30;0.30;;;21.30;99.90;;;;;;5065973;28;20617;-60
2022/02/05 14:45:32;;;;;;;0.30;0.30;;;21.30;99.90;;;;;;5052057;28;20293;-61
2022/02/05 14:48:00;;;;;;;2.53;0.95;;;21.30;99.90;;;;;;5063136;28;20363;-64
2022/02/05 14:50:28;;;;;;;0.30;0.30;;;21.20;99.90;;;;;;5043580;28;20428;-60
2022/02/05 14:52:55;;;;;;;;;;;21.20;99.90;;;;;;5061406;28;20464;-63
2022/02/05 14:55:23;;;;;;;0.40;0.40;;;21.20;99.90;;;;;;5056094;28;20332;-61
2022/02/05 14:57:50;;;;;;;0.50;0.50;;;21.20;99.90;;;;;;5066275;28;20060;-59
2022/02/05 15:00:18;;;;;;;0.50;0.50;;;21.30;99.90;;;;;;5058381;28;20055;-64
2022/02/05 15:02:46;;;;;;;0.50;0.50;;;21.30;99.90;;;;;;5067291;28;20404;-63
2022/02/05 15:05:14;;;;;;;0.38;0.38;;;21.40;99.90;;;;;;5071561;28;20408;-63
2022/02/05 15:07:42;;;;;;;2.03;1.13;;;21.50;99.90;;;;;;5079654;28;20336;-63
2022/02/05 15:10:14;;;;;;;0.30;0.30;;;21.50;99.90;;;;;;5065762;28;20051;-61
2022/02/05 15:12:42;;;;;;;0.30;0.30;;;21.50;99.90;;;;;;5066357;28;20151;-64
2022/02/05 15:15:16;;;;;;;0.93;0.93;;;21.60;99.90;;;;;;5068761;28;20399;-61
2022/02/05 15:17:45;;;;;;;0.30;0.30;;;21.60;99.90;;;;;;5064475;28;20535;-62
2022/02/05 15:20:14;;;;;;;0.35;0.35;;;21.70;99.90;;;;;;5066702;28;20044;-63
2022/02/05 15:22:46;;;;;;;0.77;0.45;;;21.70;99.90;;;;;;5064547;28;20052;-63
2022/02/05 15:25:14;;;;;;;0.30;0.30;;;21.70;99.90;;;;;;5073547;28;20052;-64
2022/02/05 15:27:41;;;;;;;9.52;1.38;;;21.70;99.90;;;;;;5064470;28;20052;-64
2022/02/05 15:30:10;;;;;;;1.63;1.05;;;21.70;99.90;;;;;;5068304;28;20032;-64
2022/02/05 15:32:38;;;;;;;0.40;0.40;;;21.60;99.90;;;;;;5065329;28;20044;-60
2022/02/05 15:35:06;;;;;;;;;;;21.60;99.90;;;;;;5065349;28;20059;-60
2022/02/05 15:37:33;;;;;;;0.30;0.30;;;21.60;99.90;;;;;;5066961;28;20410;-62
2022/02/05 15:45:17;;;;;;;0.40;0.40;;;21.50;99.90;;;;;;5062964;28;20118;-61
2022/02/05 15:47:44;;;;;;;0.30;0.30;;;21.40;99.90;;;;;;5067063;28;20044;-60
2022/02/05 15:50:13;;;;;;;1.95;1.08;;;21.40;99.90;;;;;;5057054;28;20047;-64
2022/02/05 15:52:40;;;;;;;0.30;0.30;;;21.30;99.90;;;;;;5060681;28;20464;-63
2022/02/05 15:55:10;;;;;;;0.40;0.40;;;21.30;99.90;;;;;;5042897;28;20573;-62
2022/02/05 15:57:58;;;;;;;0.50;0.50;;;21.30;99.90;;;;;;5061115;28;20415;-64
2022/02/05 16:00:30;;;;;;;0.77;0.77;;;21.20;99.90;;;;;;5063494;28;20059;-63
2022/02/05 16:03:01;;;;;;;0.30;0.30;;;21.20;99.90;;;;;;5068297;28;20415;-62
2022/02/05 16:05:29;;;;;;;0.30;0.30;;;21.20;99.90;;;;;;5059056;28;20056;-64
2022/02/05 16:07:56;;;;;;;1.10;0.85;;;21.10;99.90;;;;;;5065564;28;20051;-62
2022/02/05 16:10:24;;;;;;;1.60;1.50;;;21.10;99.90;;;;;;5078529;28;20048;-63
2022/02/05 16:12:51;;;;;;;0.30;0.30;;;21.10;99.90;;;;;;5072649;28;20388;-60
2022/02/05 16:15:20;;;;;;;0.50;0.50;;;21.10;99.90;;;;;;5072088;28;20052;-62
2022/02/05 16:17:50;;;;;;;0.40;0.40;;;21.10;99.90;;;;;;5065798;28;20049;-62
2022/02/05 16:20:22;;;;;;;30.33;1.15;;;21.10;99.90;;;;;;5065642;28;20467;-63
2022/02/05 16:22:50;;;;;;;0.50;0.50;;;21.20;99.90;;;;;;5073963;28;20044;-64
2022/02/05 16:25:21;;;;;;;0.28;0.28;;;21.20;99.90;;;;;;5069003;28;20048;-63
2022/02/05 16:27:51;;;;;;;0.30;0.30;;;21.20;99.90;;;;;;5070802;28;20040;-62